createdAt,value
2022-11-07T00:02:23.149Z,1.55
2022-11-07T00:04:53.052Z,1.70
2022-11-07T00:07:21.078Z,1.85
2022-11-07T00:09:49.148Z,1.15
2022-11-07T00:12:17.229Z,1.90
2022-11-07T00:14:45.288Z,1.67
2022-11-07T00:17:13.602Z,1.90
2022-11-07T00:19:41.633Z,1.90
2022-11-07T00:22:11.119Z,1.92
2022-11-07T00:24:39.512Z,1.65
2022-11-07T00:27:07.624Z,1.27
2022-11-07T00:29:35.732Z,2.03
2022-11-07T00:32:03.796Z,1.95
2022-11-07T00:34:35.556Z,0.85
2022-11-07T00:37:03.737Z,1.80
2022-11-07T00:39:33.359Z,2.25
2022-11-07T00:42:01.442Z,1.58
2022-11-07T00:44:29.499Z,1.63
2022-11-07T00:46:57.927Z,2.22
2022-11-07T00:49:25.943Z,1.27
2022-11-07T00:51:53.997Z,1.52
2022-11-07T00:54:22.110Z,1.50
2022-11-07T00:56:51.731Z,1.27
2022-11-07T00:59:19.829Z,2.00
2022-11-07T01:01:47.991Z,1.55
2022-11-07T01:04:33.819Z,1.95
2022-11-07T01:07:03.364Z,1.83
2022-11-07T01:09:31.400Z,1.90
2022-11-07T01:12:00.864Z,1.20
2022-11-07T01:14:29.352Z,1.60
2022-11-07T01:16:57.415Z,2.13
2022-11-07T01:19:25.649Z,1.75
2022-11-07T01:21:53.900Z,1.83
2022-11-07T01:24:22.057Z,2.25
2022-11-07T01:26:52.018Z,1.02
2022-11-07T01:29:21.736Z,2.10
2022-11-07T01:31:49.973Z,1.90
2022-11-07T01:34:18.518Z,1.70
2022-11-07T01:36:46.915Z,1.30
2022-11-07T01:39:15.132Z,2.13
2022-11-07T01:41:43.234Z,2.20
2022-11-07T01:44:48.424Z,1.63
2022-11-07T01:47:18.238Z,2.40
2022-11-07T01:49:46.881Z,1.67
2022-11-07T01:52:19.011Z,1.38
2022-11-07T01:54:54.272Z,1.88
2022-11-07T01:57:25.287Z,1.58
2022-11-07T01:59:56.733Z,1.27
2022-11-07T02:02:28.470Z,1.83
2022-11-07T02:04:59.024Z,1.75
2022-11-07T02:07:27.374Z,2.10
2022-11-07T02:09:56.360Z,1.23
2022-11-07T02:12:26.566Z,1.35
2022-11-07T02:14:55.268Z,1.60
2022-11-07T02:17:23.601Z,1.30
2022-11-07T02:19:56.648Z,1.52
2022-11-07T02:22:35.638Z,1.80
2022-11-07T02:25:08.462Z,1.50
2022-11-07T02:27:39.330Z,1.77
2022-11-07T02:30:12.206Z,1.30
2022-11-07T02:32:40.533Z,2.20
2022-11-07T02:35:38.675Z,2.15
2022-11-07T02:38:09.768Z,2.03
2022-11-07T02:40:40.103Z,1.70
2022-11-07T02:43:10.793Z,1.40
2022-11-07T02:45:42.009Z,2.40
2022-11-07T02:48:10.469Z,1.67
2022-11-07T02:50:40.082Z,1.60
2022-11-07T02:53:08.208Z,1.80
2022-11-07T02:55:36.325Z,1.70
2022-11-07T02:58:06.874Z,1.65
2022-11-07T03:00:35.242Z,1.92
2022-11-07T03:03:03.564Z,2.15
2022-11-07T03:05:31.676Z,1.70
2022-11-07T03:07:59.830Z,1.60
2022-11-07T03:10:28.124Z,1.05
2022-11-07T03:12:56.473Z,1.48
2022-11-07T03:15:25.885Z,1.33
2022-11-07T03:17:54.277Z,1.42
2022-11-07T03:20:22.332Z,0.98
2022-11-07T03:22:50.348Z,1.35
2022-11-07T03:25:18.898Z,1.67
2022-11-07T03:27:48.324Z,1.20
2022-11-07T03:30:17.520Z,1.80
2022-11-07T03:32:47.061Z,1.65
2022-11-07T03:35:15.135Z,0.50
2022-11-07T03:37:45.988Z,1.50
2022-11-07T03:40:15.028Z,1.65
2022-11-07T03:42:44.060Z,1.30
2022-11-07T03:45:13.533Z,1.27
2022-11-07T03:47:43.347Z,1.75
2022-11-07T03:50:14.446Z,1.58
2022-11-07T03:52:42.847Z,1.67
2022-11-07T03:55:11.314Z,1.58
2022-11-07T03:57:40.048Z,1.80
2022-11-07T04:00:09.458Z,1.38
2022-11-07T04:02:38.099Z,1.45
2022-11-07T04:05:06.927Z,1.10
2022-11-07T04:07:36.430Z,1.42
2022-11-07T04:10:04.878Z,1.40
2022-11-07T04:12:50.214Z,1.33
2022-11-07T04:15:36.004Z,1.90
2022-11-07T04:18:04.158Z,1.60
2022-11-07T04:20:32.632Z,1.83
2022-11-07T04:23:02.092Z,1.50
2022-11-07T04:25:48.332Z,1.60
2022-11-07T04:28:17.970Z,1.27
2022-11-07T04:30:46.385Z,1.40
2022-11-07T04:33:14.782Z,1.27
2022-11-07T04:35:43.085Z,1.92
2022-11-07T04:38:13.033Z,1.10
2022-11-07T04:40:41.424Z,1.23
2022-11-07T04:43:10.603Z,1.17
2022-11-07T04:45:40.827Z,1.45
2022-11-07T04:48:10.842Z,1.42
2022-11-07T04:50:38.962Z,1.30
2022-11-07T04:53:07.264Z,1.20
2022-11-07T04:55:38.844Z,1.20
2022-11-07T04:58:07.249Z,1.00
2022-11-07T05:00:35.318Z,1.00
2022-11-07T05:03:03.811Z,1.60
2022-11-07T05:05:31.919Z,1.08
2022-11-07T05:08:00.251Z,1.05
2022-11-07T05:10:30.023Z,1.00
2022-11-07T05:12:59.448Z,0.98
2022-11-07T05:15:27.527Z,1.00
2022-11-07T05:17:55.900Z,0.82
2022-11-07T05:20:30.847Z,1.23
2022-11-07T05:23:16.296Z,1.15
2022-11-07T05:25:46.249Z,1.38
2022-11-07T05:28:25.781Z,0.73
2022-11-07T05:31:00.190Z,0.85
2022-11-07T05:33:28.896Z,1.02
2022-11-07T05:35:57.115Z,0.93
2022-11-07T05:38:25.253Z,1.23
2022-11-07T05:40:53.696Z,1.08
2022-11-07T05:43:23.397Z,1.10
2022-11-07T05:45:52.565Z,1.02
2022-11-07T05:48:20.608Z,1.27
2022-11-07T05:50:49.031Z,1.15
2022-11-07T05:53:17.571Z,0.80
2022-11-07T05:55:45.949Z,1.08
2022-11-07T05:58:14.525Z,0.98
2022-11-07T06:00:44.043Z,1.20
2022-11-07T06:03:12.406Z,1.30
2022-11-07T06:05:41.721Z,0.80
2022-11-07T06:08:11.797Z,0.70
2022-11-07T06:10:41.107Z,0.90
2022-11-07T06:13:13.333Z,0.80
2022-11-07T06:15:44.786Z,0.88
2022-11-07T06:18:15.530Z,0.80
2022-11-07T06:20:43.832Z,1.20
2022-11-07T06:23:12.107Z,0.90
2022-11-07T06:25:40.631Z,1.13
2022-11-07T06:28:10.647Z,1.00
2022-11-07T06:30:39.032Z,0.77
2022-11-07T06:33:11.204Z,0.88
2022-11-07T06:35:39.469Z,0.90
2022-11-07T06:38:09.071Z,0.82
2022-11-07T06:40:37.363Z,1.17
2022-11-07T06:43:09.373Z,1.25
2022-11-07T06:45:37.959Z,0.75
2022-11-07T06:48:06.932Z,0.70
2022-11-07T06:50:36.596Z,0.73
2022-11-07T06:53:05.790Z,1.17
2022-11-07T06:55:34.851Z,0.80
2022-11-07T06:58:03.773Z,0.90
2022-11-07T07:00:34.379Z,1.05
2022-11-07T07:03:02.682Z,1.40
2022-11-07T07:05:30.905Z,1.10
2022-11-07T07:08:00.816Z,0.70
2022-11-07T07:10:29.616Z,1.00
2022-11-07T07:12:57.683Z,1.00
2022-11-07T07:15:25.860Z,1.17
2022-11-07T07:17:53.978Z,1.17
2022-11-07T07:20:22.012Z,1.10
2022-11-07T07:22:57.031Z,1.10
2022-11-07T07:25:28.888Z,1.15
2022-11-07T07:27:57.337Z,0.82
2022-11-07T07:30:25.397Z,1.00
2022-11-07T07:32:53.415Z,1.13
2022-11-07T07:35:22.068Z,0.93
2022-11-07T07:37:52.256Z,1.00
2022-11-07T07:40:20.723Z,0.90
2022-11-07T07:42:50.175Z,0.85
2022-11-07T07:45:19.024Z,0.98
2022-11-07T07:47:47.084Z,0.95
2022-11-07T07:50:16.167Z,0.80
2022-11-07T07:52:44.221Z,0.80
2022-11-07T07:55:12.624Z,0.90
2022-11-07T07:57:42.476Z,0.80
2022-11-07T08:00:13.802Z,0.70
2022-11-07T08:02:43.931Z,0.75
2022-11-07T08:05:13.696Z,1.02
2022-11-07T08:07:49.350Z,0.90
2022-11-07T08:13:07.903Z,0.80
2022-11-07T08:15:37.653Z,0.95
2022-11-07T08:18:06.168Z,0.98
2022-11-07T08:20:34.571Z,1.23
2022-11-07T08:23:04.268Z,1.00
2022-11-07T08:25:33.025Z,1.17
2022-11-07T08:28:01.486Z,0.82
2022-11-07T08:30:32.102Z,1.20
2022-11-07T08:33:03.183Z,1.20
2022-11-07T08:35:31.785Z,0.98
2022-11-07T08:38:00.321Z,1.00
2022-11-07T08:40:29.144Z,0.80
2022-11-07T08:43:01.441Z,1.35
2022-11-07T08:45:29.573Z,0.90
2022-11-07T08:47:59.592Z,0.93
2022-11-07T08:50:29.616Z,1.30
2022-11-07T08:53:02.751Z,0.98
2022-11-07T08:55:31.691Z,0.85
2022-11-07T08:58:00.844Z,1.10
2022-11-07T09:00:29.444Z,0.88
2022-11-07T09:03:30.836Z,0.95
2022-11-07T09:05:47.858Z,0.90
2022-11-07T09:08:16.000Z,1.02
2022-11-07T09:10:44.225Z,0.90
2022-11-07T09:13:15.164Z,1.10
2022-11-07T09:15:47.850Z,0.98
2022-11-07T09:18:19.017Z,1.25
2022-11-07T09:20:48.667Z,0.70
2022-11-07T09:23:17.104Z,1.15
2022-11-07T09:25:45.572Z,1.00
2022-11-07T09:28:14.473Z,0.93
2022-11-07T09:30:42.949Z,1.00
2022-11-07T09:33:10.988Z,0.98
2022-11-07T09:35:39.157Z,0.98
2022-11-07T09:38:08.528Z,1.02
2022-11-07T09:40:44.782Z,0.70
2022-11-07T09:43:31.966Z,1.10
2022-11-07T09:46:06.201Z,1.00
2022-11-07T09:48:42.615Z,1.10
2022-11-07T09:51:16.362Z,1.30
2022-11-07T09:53:50.001Z,1.05
2022-11-07T09:56:18.454Z,0.77
2022-11-07T09:58:51.622Z,0.80
2022-11-07T10:01:21.722Z,1.00
2022-11-07T10:04:22.397Z,0.93
2022-11-07T10:06:45.345Z,1.00
2022-11-07T10:09:22.798Z,1.20
2022-11-07T10:12:00.329Z,1.15
2022-11-07T10:14:42.095Z,1.00
2022-11-07T10:17:21.874Z,0.90
2022-11-07T10:20:14.775Z,0.90
2022-11-07T10:22:55.182Z,0.80
2022-11-07T10:25:30.288Z,0.90
2022-11-07T10:28:13.563Z,0.90
2022-11-07T10:30:43.495Z,1.30
2022-11-07T10:33:22.111Z,1.05
2022-11-07T10:35:55.996Z,1.10
2022-11-07T10:38:27.726Z,0.90
2022-11-07T10:40:57.256Z,1.20
2022-11-07T10:43:34.031Z,0.85
2022-11-07T10:46:03.483Z,1.08
2022-11-07T10:48:33.311Z,1.00
2022-11-07T10:51:01.453Z,0.80
2022-11-07T10:53:30.094Z,1.13
2022-11-07T10:55:59.899Z,0.98
2022-11-07T10:58:31.368Z,0.90
2022-11-07T11:01:02.718Z,1.15
2022-11-07T11:03:43.729Z,0.90
2022-11-07T11:06:21.645Z,1.00
2022-11-07T11:08:51.213Z,0.95
2022-11-07T11:11:29.984Z,1.05
2022-11-07T11:14:11.897Z,0.70
2022-11-07T11:16:41.543Z,1.05
2022-11-07T11:19:20.804Z,1.15
2022-11-07T11:21:50.515Z,1.00
2022-11-07T11:24:37.918Z,0.90
2022-11-07T11:27:17.055Z,1.20
2022-11-07T11:29:53.280Z,0.88
2022-11-07T11:32:28.399Z,1.17
2022-11-07T11:35:17.473Z,1.02
2022-11-07T11:37:49.032Z,1.00
2022-11-07T11:40:20.941Z,1.05
2022-11-07T11:42:55.973Z,0.98
2022-11-07T11:45:34.398Z,0.90
2022-11-07T11:48:12.399Z,1.00
2022-11-07T11:50:46.669Z,1.02
2022-11-07T11:53:19.634Z,1.20
2022-11-07T11:55:58.717Z,1.10
2022-11-07T11:58:42.312Z,1.00
2022-11-07T12:01:22.338Z,1.02
2022-11-07T12:04:17.861Z,1.17
2022-11-07T12:06:47.732Z,1.00
2022-11-07T12:09:26.780Z,0.90
2022-11-07T12:12:09.870Z,0.80
2022-11-07T12:15:01.486Z,1.00
2022-11-07T12:17:39.489Z,1.15
2022-11-07T12:20:19.071Z,1.80
2022-11-07T12:23:00.113Z,1.20
2022-11-07T12:25:34.276Z,0.88
2022-11-07T12:28:13.813Z,1.08
2022-11-07T12:30:53.718Z,1.23
2022-11-07T12:33:32.643Z,1.05
2022-11-07T12:36:04.150Z,0.98
2022-11-07T12:39:05.533Z,0.80
2022-11-07T12:41:40.875Z,0.90
2022-11-07T12:44:35.727Z,0.88
2022-11-07T12:47:13.347Z,1.48
2022-11-07T12:49:55.509Z,0.82
2022-11-07T12:52:48.710Z,1.40
2022-11-07T12:55:22.922Z,1.13
2022-11-07T12:57:53.523Z,1.20
2022-11-07T13:00:29.031Z,0.68
2022-11-07T13:03:19.036Z,1.02
2022-11-07T13:06:00.991Z,1.08
2022-11-07T13:08:35.372Z,0.90
2022-11-07T13:11:09.129Z,1.00
2022-11-07T13:13:49.943Z,1.17
2022-11-07T13:16:27.081Z,1.05
2022-11-07T13:18:56.918Z,1.10
2022-11-07T13:21:25.385Z,1.13
2022-11-07T13:23:53.876Z,1.02
2022-11-07T13:26:46.833Z,0.90
2022-11-07T13:29:25.749Z,1.00
2022-11-07T13:32:07.868Z,0.30
2022-11-07T13:34:50.615Z,0.93
2022-11-07T13:37:22.035Z,1.05
2022-11-07T13:39:54.907Z,0.50
2022-11-07T13:42:25.090Z,1.15
2022-11-07T13:44:56.681Z,1.00
2022-11-07T13:47:32.081Z,0.90
2022-11-07T13:50:08.143Z,0.90
2022-11-07T13:52:42.326Z,1.00
2022-11-07T13:55:17.105Z,0.80
2022-11-07T13:57:50.512Z,0.90
2022-11-07T14:00:21.394Z,0.52
2022-11-07T14:02:55.377Z,0.82
2022-11-07T14:05:27.185Z,0.85
2022-11-07T14:08:01.131Z,0.70
2022-11-07T14:10:33.652Z,0.63
2022-11-07T14:13:07.816Z,1.00
2022-11-07T14:15:36.776Z,0.88
2022-11-07T14:18:05.984Z,0.88
2022-11-07T14:20:36.979Z,0.88
2022-11-07T14:23:05.546Z,0.70
2022-11-07T14:25:35.701Z,0.60
2022-11-07T14:28:07.493Z,1.00
2022-11-07T14:30:35.665Z,0.82
2022-11-07T14:33:06.216Z,1.17
2022-11-07T14:35:37.768Z,1.08
2022-11-07T14:38:11.978Z,0.73
2022-11-07T14:40:42.311Z,0.85
2022-11-07T14:43:14.861Z,0.70
2022-11-07T14:46:11.311Z,1.00
2022-11-07T14:48:34.162Z,0.70
2022-11-07T14:51:05.554Z,1.00
2022-11-07T14:53:39.737Z,0.77
2022-11-07T14:56:12.788Z,0.70
2022-11-07T14:58:41.549Z,1.00
2022-11-07T15:01:14.990Z,0.70
2022-11-07T15:03:53.808Z,0.70
2022-11-07T15:06:26.552Z,1.00
2022-11-07T15:09:00.293Z,0.93
2022-11-07T15:11:32.209Z,0.70
2022-11-07T15:14:02.391Z,0.50
2022-11-07T15:16:37.503Z,0.80
2022-11-07T15:19:09.141Z,0.98
2022-11-07T15:21:40.513Z,0.30
2022-11-07T15:24:34.685Z,0.60
2022-11-07T15:27:06.233Z,0.57
2022-11-07T15:29:36.650Z,1.55
2022-11-07T15:32:14.265Z,0.88
2022-11-07T15:35:03.952Z,0.65
2022-11-07T15:37:32.149Z,0.93
2022-11-07T15:40:00.337Z,0.60
2022-11-07T15:42:28.444Z,0.63
2022-11-07T15:44:56.721Z,1.08
2022-11-07T15:47:24.796Z,0.77
2022-11-07T15:49:53.153Z,1.00
2022-11-07T15:52:21.229Z,0.77
2022-11-07T15:54:51.046Z,0.75
2022-11-07T15:57:20.334Z,0.80
2022-11-07T15:59:48.804Z,1.20
2022-11-07T16:02:18.239Z,1.20
2022-11-07T16:04:46.433Z,0.90
2022-11-07T16:07:18.773Z,1.05
2022-11-07T16:09:49.091Z,1.30
2022-11-07T16:12:19.774Z,1.05
2022-11-07T16:14:47.993Z,1.50
2022-11-07T16:17:18.013Z,1.63
2022-11-07T16:19:46.165Z,1.58
2022-11-07T16:22:15.725Z,1.85
2022-11-07T16:24:43.932Z,1.23
2022-11-07T16:27:19.041Z,1.83
2022-11-07T16:29:47.207Z,1.92
2022-11-07T16:32:18.303Z,1.60
2022-11-07T16:34:47.732Z,1.75
2022-11-07T16:37:16.151Z,1.63
2022-11-07T16:39:44.526Z,1.63
2022-11-07T16:42:16.102Z,1.40
2022-11-07T16:44:45.642Z,1.38
2022-11-07T16:47:19.107Z,1.20
2022-11-07T16:49:50.917Z,1.70
2022-11-07T16:52:20.903Z,1.40
2022-11-07T16:54:49.337Z,1.40
2022-11-07T16:57:19.319Z,1.60
2022-11-07T16:59:51.080Z,1.50
2022-11-07T17:02:22.196Z,1.30
2022-11-07T17:04:50.977Z,1.65
2022-11-07T17:07:21.436Z,1.50
2022-11-07T17:09:50.156Z,1.70
2022-11-07T17:12:21.434Z,1.50
2022-11-07T17:14:51.587Z,1.52
2022-11-07T17:17:20.265Z,1.75
2022-11-07T17:19:48.625Z,1.70
2022-11-07T17:22:17.873Z,1.65
2022-11-07T17:24:46.224Z,1.45
2022-11-07T17:27:22.239Z,1.67
2022-11-07T17:29:52.416Z,1.48
2022-11-07T17:32:21.096Z,1.25
2022-11-07T17:35:04.712Z,1.50
2022-11-07T17:37:38.079Z,1.50
2022-11-07T17:40:07.876Z,1.70
2022-11-07T17:42:38.277Z,1.52
2022-11-07T17:45:09.492Z,1.38
2022-11-07T17:47:37.646Z,1.58
2022-11-07T17:50:06.775Z,1.10
2022-11-07T17:52:35.210Z,1.08
2022-11-07T17:55:03.256Z,1.35
2022-11-07T17:57:31.592Z,1.08
2022-11-07T17:59:59.843Z,1.30
2022-11-07T18:02:29.741Z,1.30
2022-11-07T18:04:58.088Z,1.10
2022-11-07T18:07:26.252Z,1.05
2022-11-07T18:09:54.987Z,0.95
2022-11-07T18:12:23.443Z,1.05
2022-11-07T18:14:51.548Z,0.95
2022-11-07T18:17:20.853Z,0.93
2022-11-07T18:19:50.619Z,1.10
2022-11-07T18:22:18.698Z,1.00
2022-11-07T18:24:47.457Z,1.20
2022-11-07T18:27:15.481Z,1.00
2022-11-07T18:29:43.657Z,1.73
2022-11-07T18:32:11.717Z,1.30
2022-11-07T18:34:40.760Z,1.42
2022-11-07T18:37:10.190Z,1.42
2022-11-07T18:39:39.111Z,1.20
2022-11-07T18:42:07.374Z,1.17
2022-11-07T18:44:35.493Z,1.00
2022-11-07T18:47:03.515Z,1.15
2022-11-07T18:49:31.703Z,1.05
2022-11-07T18:51:59.755Z,1.17
2022-11-07T18:54:29.957Z,1.33
2022-11-07T18:56:58.022Z,1.30
2022-11-07T18:59:27.161Z,1.17
2022-11-07T19:01:55.316Z,0.88
2022-11-07T19:04:23.431Z,1.00
2022-11-07T19:06:57.892Z,1.00
2022-11-07T19:09:32.472Z,0.75
2022-11-07T19:12:01.752Z,0.75
2022-11-07T19:14:30.883Z,0.60
2022-11-07T19:16:59.027Z,1.00
2022-11-07T19:19:27.055Z,1.13
2022-11-07T19:21:55.166Z,1.00
2022-11-07T19:24:23.222Z,1.90
2022-11-07T19:26:52.720Z,1.00
2022-11-07T19:29:21.053Z,1.00
2022-11-07T19:31:49.141Z,0.75
2022-11-07T19:34:18.212Z,1.05
2022-11-07T19:36:46.274Z,0.98
2022-11-07T19:39:14.325Z,0.90
2022-11-07T19:41:42.532Z,1.00
2022-11-07T19:44:12.055Z,0.93
2022-11-07T19:46:40.145Z,0.65
2022-11-07T19:49:08.505Z,1.20
2022-11-07T19:51:36.593Z,0.82
2022-11-07T19:54:07.020Z,0.88
2022-11-07T19:56:35.276Z,0.82
2022-11-07T19:59:03.349Z,1.55
2022-11-07T20:01:35.135Z,0.95
2022-11-07T20:04:04.392Z,0.75
2022-11-07T20:06:36.535Z,0.98
2022-11-07T20:09:07.530Z,1.30
2022-11-07T20:11:35.809Z,0.80
2022-11-07T20:14:04.395Z,1.52
2022-11-07T20:16:34.827Z,1.15
2022-11-07T20:19:03.051Z,1.00
2022-11-07T20:21:32.475Z,0.90
2022-11-07T20:24:00.660Z,0.63
2022-11-07T20:26:31.570Z,1.02
2022-11-07T20:29:00.243Z,1.10
2022-11-07T20:31:29.813Z,0.90
2022-11-07T20:34:00.851Z,1.00
2022-11-07T20:36:31.187Z,1.00
2022-11-07T20:39:00.018Z,0.73
2022-11-07T20:41:28.471Z,1.00
2022-11-07T20:43:56.897Z,1.10
2022-11-07T20:46:25.407Z,1.15
2022-11-07T20:48:54.192Z,1.23
2022-11-07T20:51:26.691Z,1.10
2022-11-07T20:53:55.231Z,1.00
2022-11-07T20:56:24.600Z,1.23
2022-11-07T20:58:53.731Z,1.13
2022-11-07T21:01:23.750Z,1.00
2022-11-07T21:03:52.560Z,0.90
2022-11-07T21:06:21.300Z,1.27
2022-11-07T21:08:52.308Z,1.35
2022-11-07T21:11:20.398Z,1.17
2022-11-07T21:13:52.926Z,1.40
2022-11-07T21:16:22.622Z,1.00
2022-11-07T21:18:51.586Z,1.10
2022-11-07T21:21:22.474Z,0.80
2022-11-07T21:23:53.444Z,1.10
2022-11-07T21:26:24.377Z,0.93
2022-11-07T21:28:52.745Z,1.00
2022-11-07T21:31:24.348Z,1.20
2022-11-07T21:33:53.020Z,0.80
2022-11-07T21:36:23.628Z,0.90
2022-11-07T21:38:54.977Z,0.90
2022-11-07T21:41:23.496Z,1.02
2022-11-07T21:43:52.685Z,1.30
2022-11-07T21:46:23.012Z,0.80
2022-11-07T21:48:52.746Z,1.00
2022-11-07T21:51:22.865Z,0.65
2022-11-07T21:53:53.546Z,1.05
2022-11-07T21:56:23.768Z,1.20
2022-11-07T21:58:55.953Z,0.93
2022-11-07T22:01:24.932Z,0.95
2022-11-07T22:04:14.626Z,1.25
2022-11-07T22:06:44.249Z,0.80
2022-11-07T22:09:16.438Z,1.35
2022-11-07T22:11:44.622Z,1.00
2022-11-07T22:14:15.626Z,1.00
2022-11-07T22:16:44.186Z,1.23
2022-11-07T22:19:13.154Z,1.10
2022-11-07T22:21:41.951Z,0.80
2022-11-07T22:24:10.377Z,1.35
2022-11-07T22:26:40.025Z,0.90
2022-11-07T22:29:08.520Z,0.85
2022-11-07T22:31:36.752Z,1.20
2022-11-07T22:34:05.329Z,1.00
2022-11-07T22:36:33.571Z,1.00
2022-11-07T22:39:01.624Z,1.10
2022-11-07T22:41:30.285Z,1.00
2022-11-07T22:43:59.762Z,1.20
2022-11-07T22:46:29.602Z,0.95
2022-11-07T22:48:59.326Z,1.40
2022-11-07T22:51:30.684Z,0.85
2022-11-07T22:53:59.696Z,1.00
2022-11-07T22:56:28.117Z,0.90
2022-11-07T22:58:56.718Z,0.90
2022-11-07T23:01:28.239Z,1.15
2022-11-07T23:03:58.710Z,0.93
2022-11-07T23:06:28.610Z,1.05
2022-11-07T23:08:57.856Z,1.38
2022-11-07T23:14:18.580Z,1.13
2022-11-07T23:16:49.815Z,1.50
2022-11-07T23:19:20.325Z,1.20
2022-11-07T23:21:49.044Z,1.40
2022-11-07T23:24:17.142Z,1.00
2022-11-07T23:26:45.567Z,1.00
2022-11-07T23:29:16.185Z,1.42
2022-11-07T23:31:46.748Z,1.15
2022-11-07T23:34:17.051Z,1.42
2022-11-07T23:36:45.209Z,1.13
2022-11-07T23:39:16.399Z,1.58
2022-11-07T23:41:44.994Z,1.10
2022-11-07T23:44:13.438Z,1.10
2022-11-07T23:46:59.609Z,0.80
2022-11-07T23:49:46.319Z,1.02
2022-11-07T23:52:14.610Z,1.25
2022-11-07T23:55:00.482Z,1.17
2022-11-07T23:57:28.510Z,1.35
